Time;durP1;ratioP1;P1;durP2;ratioP2;P2;SDS_P1;SDS_P2;PMS_P1;PMS_P2;Temp;Humidity;BMP_temperature;BMP_pressure;BME280_temperature;BME280_humidity;BME280_pressure;Samples;Min_cycle;Max_cycle;Signal;HPM_P1;HPM_P2
2022/08/29 00:00:58;;;;;;;9.93;8.90;;;;;;;22.79;55.32;99813.25;5063812;28;20053;-75
2022/08/29 00:03:25;;;;;;;12.52;9.60;;;;;;;22.89;55.18;99829.69;5064072;28;20412;-75
2022/08/29 00:05:53;;;;;;;10.05;9.00;;;;;;;22.80;55.44;99822.59;5063938;28;20428;-76
2022/08/29 00:08:20;;;;;;;11.27;9.43;;;;;;;22.72;55.47;99835.91;5060173;28;20080;-73
2022/08/29 00:10:47;;;;;;;13.35;10.13;;;;;;;22.57;55.72;99832.00;5055612;28;20103;-74
2022/08/29 00:13:15;;;;;;;13.40;10.65;;;;;;;22.66;55.70;99831.72;5058366;28;20056;-75
2022/08/29 00:15:43;;;;;;;11.43;10.20;;;;;;;22.62;55.81;99853.59;5064436;28;20087;-74
2022/08/29 00:18:12;;;;;;;11.45;9.73;;;;;;;22.45;56.26;99867.13;5061311;28;20102;-74
2022/08/29 00:20:39;;;;;;;15.63;10.43;;;;;;;22.43;55.88;99883.75;5069146;28;20049;-74
2022/08/29 00:23:06;;;;;;;11.32;10.20;;;;;;;22.36;56.28;99897.84;5068477;28;20049;-75
2022/08/29 00:25:34;;;;;;;11.40;10.25;;;;;;;22.38;56.74;99921.03;5066595;28;20132;-73
2022/08/29 00:28:02;;;;;;;10.70;9.57;;;;;;;22.41;56.83;99928.81;5065352;28;20163;-75
2022/08/29 00:30:29;;;;;;;11.45;10.35;;;;;;;22.33;56.69;99924.22;5062618;28;20536;-74
2022/08/29 00:32:57;;;;;;;16.38;11.45;;;;;;;22.21;56.85;99930.03;5065756;28;20562;-74
2022/08/29 00:35:27;;;;;;;14.43;12.80;;;;;;;22.15;56.92;99948.59;5066580;28;20139;-74
2022/08/29 00:37:54;;;;;;;16.27;12.13;;;;;;;22.01;56.46;99892.22;5063315;28;20646;-76
2022/08/29 00:40:27;;;;;;;15.98;13.52;;;;;;;22.08;56.55;99898.03;5070620;28;20140;-76
2022/08/29 00:42:56;;;;;;;18.55;13.25;;;;;;;22.04;56.57;99914.22;5064810;28;20149;-74
2022/08/29 00:45:23;;;;;;;17.35;12.95;;;;;;;21.53;57.36;99909.44;5070812;28;20095;-74
2022/08/29 00:47:56;;;;;;;15.13;11.80;;;;;;;21.53;57.68;99922.81;5068051;28;20052;-74
2022/08/29 00:50:30;;;;;;;14.40;11.70;;;;;;;21.48;57.73;99908.91;5067586;28;20127;-75
2022/08/29 00:53:00;;;;;;;22.88;14.60;;;;;;;21.51;58.21;99902.50;5065243;28;20080;-74
2022/08/29 00:55:30;;;;;;;;;;;;;;;21.62;57.28;99891.38;5068801;28;20182;-73
2022/08/29 00:58:02;;;;;;;15.45;12.80;;;;;;;21.77;57.60;99884.78;5065887;28;20015;-73
2022/08/29 01:00:29;;;;;;;16.27;13.43;;;;;;;21.59;57.90;99866.53;5066547;28;20094;-73
2022/08/29 01:02:56;;;;;;;15.65;12.57;;;;;;;21.59;57.71;99892.09;5067486;28;20124;-74
2022/08/29 01:05:25;;;;;;;20.13;14.13;;;;;;;21.51;57.89;99914.69;5059601;28;20132;-73
2022/08/29 01:07:52;;;;;;;21.63;13.90;;;;;;;21.32;58.32;99934.47;5081875;28;20582;-73
2022/08/29 01:13:07;;;;;;;15.52;13.85;;;;;;;21.25;58.64;99897.38;5065926;28;20044;-74
2022/08/29 01:15:36;;;;;;;18.40;13.30;;;;;;;21.38;58.78;99913.13;5069211;28;20468;-74
2022/08/29 01:18:06;;;;;;;21.77;13.07;;;;;;;21.29;58.73;99918.97;5068624;28;20856;-74
2022/08/29 01:20:33;;;;;;;;;;;;;;;21.20;58.55;99909.84;5069670;28;20090;-73
2022/08/29 01:23:31;;;;;;;14.68;11.88;;;;;;;21.26;58.74;99897.03;5064653;28;20414;-73
2022/08/29 01:26:00;;;;;;;16.52;12.75;;;;;;;21.25;59.22;99880.34;5064171;28;20081;-74
2022/08/29 01:28:36;;;;;;;17.02;12.63;;;;;;;21.23;59.12;99866.53;5072685;28;20898;-72
2022/08/29 01:31:17;;;;;;;13.10;11.80;;;;;;;21.36;59.00;99889.13;5063156;28;20567;-74
2022/08/29 01:34:04;;;;;;;;;;;;;;;21.18;58.84;99906.53;5073824;28;20049;-72
2022/08/29 01:36:37;;;;;;;19.15;12.30;;;;;;;21.20;59.13;99904.16;5067193;28;20389;-73
2022/08/29 01:39:05;;;;;;;15.05;11.75;;;;;;;21.28;59.06;99897.47;5066510;28;20127;-72
2022/08/29 01:41:32;;;;;;;17.20;11.77;;;;;;;21.18;59.02;99869.63;5052469;28;20078;-73
2022/08/29 01:44:00;;;;;;;12.73;11.13;;;;;;;21.12;59.36;99873.94;5069277;28;20187;-73
2022/08/29 01:46:32;;;;;;;16.35;11.70;;;;;;;21.18;59.14;99885.84;5061877;28;20095;-73
2022/08/29 01:49:06;;;;;;;15.45;11.57;;;;;;;21.23;59.68;99874.19;5062948;28;20059;-74
2022/08/29 01:51:34;;;;;;;17.92;12.40;;;;;;;21.26;59.59;99877.13;5069014;28;20139;-74
2022/08/29 01:54:01;;;;;;;14.10;11.65;;;;;;;21.12;59.95;99868.25;5058198;28;20136;-74
2022/08/29 01:56:30;;;;;;;12.25;10.68;;;;;;;21.14;59.71;99884.94;5063712;28;20131;-73
2022/08/29 01:59:03;;;;;;;14.05;12.10;;;;;;;21.07;59.84;99896.94;5067989;28;20052;-74
2022/08/29 02:01:33;;;;;;;13.85;11.90;;;;;;;20.99;59.96;99893.09;5063717;28;20132;-73
2022/08/29 02:04:00;;;;;;;16.27;12.05;;;;;;;20.79;60.03;99888.53;5065373;28;20055;-73
2022/08/29 02:06:28;;;;;;;15.68;11.35;;;;;;;20.93;60.01;99911.59;5067084;28;20131;-74
2022/08/29 02:08:55;;;;;;;14.93;11.52;;;;;;;20.99;60.09;99914.97;5065741;28;20131;-73
2022/08/29 02:11:23;;;;;;;17.05;12.60;;;;;;;20.99;60.00;99897.94;5066649;28;20530;-72
2022/08/29 02:13:54;;;;;;;12.77;11.48;;;;;;;21.06;60.10;99893.28;5065754;28;20052;-73
2022/08/29 02:16:26;;;;;;;14.32;11.27;;;;;;;21.07;60.05;99896.94;5069307;28;20122;-72
2022/08/29 02:18:54;;;;;;;16.60;11.88;;;;;;;21.00;60.02;99872.03;5057482;28;20103;-73
2022/08/29 02:21:23;;;;;;;14.32;12.80;;;;;;;21.07;60.03;99879.91;5060609;28;20172;-73
2022/08/29 02:23:51;;;;;;;14.73;12.30;;;;;;;21.10;60.16;99886.88;5067978;28;20478;-72
2022/08/29 02:26:19;;;;;;;15.45;12.38;;;;;;;21.03;60.56;99882.66;5061734;28;20540;-73
2022/08/29 02:28:50;;;;;;;15.48;12.20;;;;;;;20.75;60.49;99847.88;5067831;28;20045;-73
2022/08/29 02:31:19;;;;;;;15.35;11.43;;;;;;;20.94;60.47;99882.00;5065563;28;20075;-72
2022/08/29 02:33:46;;;;;;;16.55;12.35;;;;;;;20.78;60.67;99858.47;5064204;28;20049;-73
2022/08/29 02:36:15;;;;;;;16.25;11.50;;;;;;;20.75;60.78;99850.69;5064919;28;20045;-74
2022/08/29 02:38:45;;;;;;;14.20;12.25;;;;;;;20.92;60.61;99887.25;5064013;28;20419;-74
2022/08/29 02:41:12;;;;;;;13.57;12.27;;;;;;;20.80;60.69;99876.81;5061834;28;20509;-74
2022/08/29 02:43:40;;;;;;;14.77;13.27;;;;;;;20.52;60.87;99848.53;5067991;28;20476;-75
2022/08/29 02:46:07;;;;;;;14.18;12.75;;;;;;;20.67;61.02;99895.09;5066525;28;20048;-74
2022/08/29 02:48:35;;;;;;;14.15;12.23;;;;;;;20.55;61.03;99879.00;5067511;28;20564;-75
2022/08/29 02:51:02;;;;;;;13.98;12.48;;;;;;;20.63;61.16;99904.72;5064697;28;20045;-75
2022/08/29 02:53:29;;;;;;;14.32;12.57;;;;;;;20.61;61.36;99898.56;5062660;28;20059;-74
2022/08/29 02:55:57;;;;;;;15.70;13.27;;;;;;;20.35;61.31;99852.50;5062382;28;20215;-74
2022/08/29 02:58:24;;;;;;;15.70;12.55;;;;;;;20.67;61.22;99892.25;5060416;28;20040;-74
2022/08/29 03:00:52;;;;;;;14.05;12.57;;;;;;;20.49;61.34;99874.75;5056424;28;20076;-75
2022/08/29 03:03:19;;;;;;;14.15;12.68;;;;;;;20.52;61.23;99884.56;5064742;28;20052;-75
2022/08/29 03:05:46;;;;;;;13.43;12.05;;;;;;;20.51;61.31;99871.56;5062964;28;20071;-75
2022/08/29 03:08:14;;;;;;;16.23;11.95;;;;;;;20.66;61.30;99895.47;5067981;28;20067;-75
2022/08/29 03:10:42;;;;;;;14.68;11.90;;;;;;;20.66;61.50;99889.81;5066581;28;20060;-74
2022/08/29 03:13:10;;;;;;;14.27;11.52;;;;;;;20.77;61.29;99896.56;5067458;28;20139;-75
2022/08/29 03:15:37;;;;;;;13.73;10.93;;;;;;;20.63;61.61;99884.84;5063877;28;20041;-75
2022/08/29 03:18:04;;;;;;;17.52;12.00;;;;;;;20.63;61.48;99876.34;5068856;28;20564;-74
2022/08/29 03:20:35;;;;;;;15.55;11.57;;;;;;;20.75;61.31;99893.25;5070300;28;20131;-74
2022/08/29 03:23:03;;;;;;;13.85;12.02;;;;;;;20.59;61.40;99871.41;5063129;28;20548;-75
2022/08/29 03:25:30;;;;;;;13.32;11.43;;;;;;;20.75;61.36;99885.59;5065544;28;20055;-74
2022/08/29 03:27:58;;;;;;;14.73;11.93;;;;;;;20.77;61.20;99891.72;5063365;28;20131;-74
2022/08/29 03:30:26;;;;;;;12.63;11.10;;;;;;;20.75;61.26;99884.75;5059216;28;20592;-74
2022/08/29 03:32:54;;;;;;;12.90;11.18;;;;;;;20.60;61.41;99872.22;5066224;28;20139;-74
2022/08/29 03:35:21;;;;;;;14.10;12.40;;;;;;;20.58;61.35;99878.25;5065655;28;20084;-74
2022/08/29 03:37:49;;;;;;;17.58;12.88;;;;;;;20.51;61.81;99872.41;5060392;28;20082;-74
2022/08/29 03:40:18;;;;;;;13.25;11.52;;;;;;;20.59;61.74;99891.25;5064831;28;20475;-75
2022/08/29 03:42:46;;;;;;;12.68;11.38;;;;;;;20.62;61.56;99889.72;5064399;28;20053;-74
2022/08/29 03:45:16;;;;;;;16.60;11.63;;;;;;;20.57;61.56;99868.09;5067643;28;20076;-75
2022/08/29 03:47:44;;;;;;;14.70;11.48;;;;;;;20.67;61.51;99880.09;5068279;28;20060;-74
2022/08/29 03:50:14;;;;;;;12.80;11.52;;;;;;;20.69;61.50;99860.69;5065146;28;20437;-74
2022/08/29 03:52:42;;;;;;;12.25;10.88;;;;;;;20.56;61.27;99835.25;5064706;28;20087;-75
2022/08/29 03:55:10;;;;;;;13.85;11.98;;;;;;;20.67;61.28;99865.91;5067582;28;20072;-74
2022/08/29 03:57:37;;;;;;;14.02;11.52;;;;;;;20.65;61.60;99879.63;5067467;28;20136;-74
2022/08/29 04:00:11;;;;;;;13.23;11.82;;;;;;;20.69;61.62;99886.25;5053697;28;20135;-74
2022/08/29 04:02:39;;;;;;;13.38;11.85;;;;;;;20.72;61.35;99882.66;5068276;28;20151;-73
2022/08/29 04:05:07;;;;;;;19.30;12.00;;;;;;;20.59;61.23;99865.72;5065682;28;20048;-75
2022/08/29 04:07:43;;;;;;;11.35;10.32;;;;;;;20.59;61.34;99877.06;5068785;28;20045;-74
2022/08/29 04:10:14;;;;;;;23.70;11.75;;;;;;;20.62;61.61;99877.53;5075950;28;20228;-73
2022/08/29 04:12:42;;;;;;;18.90;12.68;;;;;;;20.49;61.69;99863.41;5068664;28;20155;-72
2022/08/29 04:15:09;;;;;;;14.30;12.13;;;;;;;20.62;61.57;99884.03;5071354;28;20132;-73
2022/08/29 04:17:37;;;;;;;16.02;13.15;;;;;;;20.68;61.96;99881.72;5070299;28;20053;-74
2022/08/29 04:20:21;;;;;;;16.25;12.80;;;;;;;20.61;61.60;99856.84;5069682;28;20784;-74
2022/08/29 04:22:52;;;;;;;13.20;11.88;;;;;;;20.79;61.82;99894.19;5067317;28;20070;-73
2022/08/29 04:25:23;;;;;;;13.60;11.80;;;;;;;20.75;61.66;99887.59;5068696;28;20086;-74
2022/08/29 04:27:51;;;;;;;14.98;11.80;;;;;;;20.74;61.59;99902.97;5073585;28;20356;-75
2022/08/29 04:30:21;;;;;;;15.88;11.85;;;;;;;20.75;61.66;99904.63;5067557;28;20059;-74
2022/08/29 04:32:48;;;;;;;16.73;11.93;;;;;;;20.62;61.93;99884.03;5074013;28;20476;-75
2022/08/29 04:35:15;;;;;;;16.80;11.75;;;;;;;20.66;61.79;99886.97;5073558;28;20127;-75
2022/08/29 04:37:43;;;;;;;18.95;13.23;;;;;;;20.74;61.86;99905.81;5072932;28;20098;-74
2022/08/29 04:40:14;;;;;;;15.80;12.80;;;;;;;20.71;62.06;99909.38;5071293;28;20059;-75
2022/08/29 04:42:41;;;;;;;13.50;11.90;;;;;;;20.65;62.00;99902.31;5073028;28;20357;-74
2022/08/29 04:45:12;;;;;;;12.38;11.05;;;;;;;20.54;61.95;99894.34;5072330;28;20470;-75
2022/08/29 04:47:39;;;;;;;15.25;12.55;;;;;;;20.63;61.97;99918.91;5069758;28;20159;-75
2022/08/29 04:50:09;;;;;;;14.60;12.07;;;;;;;20.52;61.90;99922.25;5072778;28;20139;-75
2022/08/29 04:52:36;;;;;;;17.42;12.32;;;;;;;20.39;62.03;99920.66;5073459;28;20131;-75
2022/08/29 04:55:04;;;;;;;16.55;12.70;;;;;;;20.33;62.25;99899.41;5071868;28;20462;-74
2022/08/29 04:57:33;;;;;;;23.65;14.10;;;;;;;20.41;62.09;99906.94;5066639;28;20164;-74
2022/08/29 05:00:03;;;;;;;13.35;12.05;;;;;;;20.30;62.03;99911.47;5066673;28;20535;-74
2022/08/29 05:02:30;;;;;;;15.63;12.88;;;;;;;20.20;62.32;99903.47;5069503;28;20079;-74
2022/08/29 05:04:57;;;;;;;20.40;13.45;;;;;;;20.25;62.19;99920.25;5066494;28;20527;-74
2022/08/29 05:07:25;;;;;;;14.90;12.55;;;;;;;20.17;62.49;99902.22;5067420;28;20510;-74
2022/08/29 05:10:01;;;;;;;20.80;14.43;;;;;;;20.25;62.52;99921.06;5061029;28;20125;-74
2022/08/29 05:12:30;;;;;;;15.20;13.48;;;;;;;20.30;62.47;99923.63;5069706;28;20060;-74
2022/08/29 05:14:57;;;;;;;19.52;14.00;;;;;;;20.19;62.43;99916.84;5069590;28;20135;-73
2022/08/29 05:17:24;;;;;;;20.55;15.02;;;;;;;20.37;62.70;99934.34;5067480;28;20129;-71
2022/08/29 05:19:52;;;;;;;18.88;13.95;;;;;;;20.41;62.76;99926.78;5059804;28;20079;-73
2022/08/29 05:22:20;;;;;;;16.23;13.73;;;;;;;20.49;62.87;99914.44;5064391;28;20465;-74
2022/08/29 05:24:48;;;;;;;21.15;15.60;;;;;;;20.57;62.77;99921.97;5066208;28;20126;-73
2022/08/29 05:27:18;;;;;;;23.23;14.73;;;;;;;20.59;63.11;99913.94;5067279;28;20086;-74
2022/08/29 05:29:47;;;;;;;19.83;14.23;;;;;;;20.58;63.13;99908.63;5066829;28;20452;-76
2022/08/29 05:32:14;;;;;;;24.92;16.25;;;;;;;20.54;63.21;99913.38;5062252;28;20048;-75
2022/08/29 05:34:42;;;;;;;23.05;17.85;;;;;;;20.55;63.07;99918.69;5064515;28;20143;-75
2022/08/29 05:37:13;;;;;;;27.92;16.55;;;;;;;20.60;63.35;99940.28;5064595;28;20041;-74
2022/08/29 05:39:41;;;;;;;22.90;15.93;;;;;;;20.42;63.40;99914.25;5061343;28;20138;-75
2022/08/29 05:42:10;;;;;;;19.85;15.57;;;;;;;20.58;63.79;99945.50;5065476;28;20390;-76
2022/08/29 05:44:38;;;;;;;23.40;16.40;;;;;;;20.70;63.48;99944.63;5067589;28;20057;-75
2022/08/29 05:47:10;;;;;;;19.70;15.60;;;;;;;20.67;63.58;99942.50;5064606;28;20059;-75
2022/08/29 05:49:40;;;;;;;18.27;14.48;;;;;;;20.67;63.52;99949.00;5063021;28;20068;-76
2022/08/29 05:52:08;;;;;;;19.50;14.18;;;;;;;20.69;63.40;99963.66;5064510;28;20048;-76
2022/08/29 05:54:39;;;;;;;19.45;14.55;;;;;;;20.66;63.45;99977.75;5062056;28;20091;-76
2022/08/29 05:57:08;;;;;;;19.85;15.02;;;;;;;20.66;63.42;99977.75;5063367;28;20454;-71
2022/08/29 05:59:36;;;;;;;25.00;15.85;;;;;;;20.56;63.27;99985.59;5061594;28;20116;-74
2022/08/29 06:02:05;;;;;;;24.08;15.38;;;;;;;20.46;63.48;99977.56;5064495;28;20052;-75
2022/08/29 06:04:32;;;;;;;22.77;15.25;;;;;;;20.45;63.71;99986.44;5061123;28;20082;-75
2022/08/29 06:06:59;;;;;;;20.67;15.15;;;;;;;20.50;63.42;99989.88;5062031;28;20040;-76
2022/08/29 06:09:27;;;;;;;15.90;13.65;;;;;;;20.46;63.42;99988.91;5061382;28;20568;-73
2022/08/29 06:11:56;;;;;;;18.83;16.80;;;;;;;20.41;63.73;99966.50;5064083;28;20147;-73
2022/08/29 06:14:24;;;;;;;16.27;13.50;;;;;;;20.71;63.53;100017.19;5064708;28;20139;-69
2022/08/29 06:16:52;;;;;;;21.92;14.07;;;;;;;20.68;63.54;100017.91;5060903;28;20305;-71
2022/08/29 06:19:19;;;;;;;24.70;14.35;;;;;;;20.49;63.89;100013.72;5062223;28;20615;-72
2022/08/29 06:21:46;;;;;;;20.38;13.55;;;;;;;20.51;63.63;100022.72;5063887;28;20060;-78
2022/08/29 06:24:14;;;;;;;16.33;14.15;;;;;;;20.55;63.80;100040.69;5068704;28;20045;-75
2022/08/29 06:26:43;;;;;;;20.55;14.30;;;;;;;20.54;63.60;100036.16;5065652;28;20159;-75
2022/08/29 06:29:13;;;;;;;15.07;13.52;;;;;;;20.40;64.03;100034.91;5064523;28;20048;-72
2022/08/29 06:31:40;;;;;;;16.80;15.27;;;;;;;20.20;63.78;100036.72;5063234;28;20538;-73
2022/08/29 06:34:08;;;;;;;21.30;14.60;;;;;;;20.13;64.01;100043.81;5063393;28;20471;-76
2022/08/29 06:36:36;;;;;;;20.20;18.20;;;;;;;20.20;64.03;100065.06;5063761;28;20552;-75
2022/08/29 06:39:08;;;;;;;23.88;15.70;;;;;;;20.29;64.11;100062.94;5064874;28;20139;-80
2022/08/29 06:41:37;;;;;;;23.50;20.35;;;;;;;20.22;64.18;100042.88;5064171;28;20515;-73
2022/08/29 06:44:05;;;;;;;17.37;15.13;;;;;;;20.22;64.48;100057.88;5062277;28;20139;-74
2022/08/29 06:46:35;;;;;;;23.08;16.65;;;;;;;20.18;64.61;100061.78;5062953;28;20226;-74
2022/08/29 06:49:05;;;;;;;19.20;16.25;;;;;;;20.38;64.24;100074.16;5064220;28;20098;-75
2022/08/29 06:51:35;;;;;;;18.85;16.02;;;;;;;20.34;64.35;100080.53;5064584;28;20500;-74
2022/08/29 06:54:05;;;;;;;18.15;14.48;;;;;;;20.28;64.65;100084.81;5067586;28;20084;-73
2022/08/29 06:56:34;;;;;;;27.98;15.73;;;;;;;20.38;64.50;100085.50;5074357;28;20482;-73
2022/08/29 06:59:03;;;;;;;23.58;16.05;;;;;;;20.41;64.54;100077.09;5063354;28;20044;-75
2022/08/29 07:01:31;;;;;;;25.80;15.27;;;;;;;20.32;64.70;100077.22;5062746;28;20091;-71
2022/08/29 07:04:00;;;;;;;18.15;14.65;;;;;;;20.35;64.67;100078.53;5064101;28;20394;-70
2022/08/29 07:06:29;;;;;;;17.75;14.95;;;;;;;20.43;64.54;100090.91;5062421;28;20055;-71
2022/08/29 07:08:56;;;;;;;24.42;14.90;;;;;;;20.49;64.47;100095.16;5062080;28;20195;-70
2022/08/29 07:11:26;;;;;;;22.67;15.07;;;;;;;20.52;64.31;100075.44;5058192;28;20102;-73
2022/08/29 07:13:56;;;;;;;20.08;14.57;;;;;;;20.51;64.42;100070.94;5064388;28;20048;-71
2022/08/29 07:16:24;;;;;;;20.38;18.27;;;;;;;20.65;64.16;100098.06;5069264;28;20140;-71
2022/08/29 07:18:51;;;;;;;15.63;12.98;;;;;;;20.52;64.62;100077.44;5069738;28;20056;-72
2022/08/29 07:21:21;;;;;;;21.45;19.38;;;;;;;20.60;64.34;100087.81;5066257;28;20143;-73
2022/08/29 07:23:49;;;;;;;16.90;13.10;;;;;;;20.30;64.39;100036.22;5066326;28;20072;-72
2022/08/29 07:26:18;;;;;;;23.92;14.45;;;;;;;20.63;64.48;100091.94;5069745;28;20474;-71
2022/08/29 07:28:49;;;;;;;20.05;15.85;;;;;;;20.67;64.16;100098.56;5068300;28;20131;-76
2022/08/29 07:31:17;;;;;;;21.13;15.02;;;;;;;20.59;64.32;100087.00;5066101;28;20070;-78
2022/08/29 07:33:44;;;;;;;15.50;13.98;;;;;;;20.67;63.97;100084.38;5064462;28;20059;-71
2022/08/29 07:36:11;;;;;;;19.40;15.48;;;;;;;20.82;63.91;100086.44;5065653;28;20606;-70
2022/08/29 07:38:38;;;;;;;15.10;13.15;;;;;;;20.79;63.94;100079.47;5066310;28;20145;-71
2022/08/29 07:41:08;;;;;;;18.17;15.77;;;;;;;20.78;63.95;100071.31;5064930;28;20091;-68
2022/08/29 07:43:38;;;;;;;19.02;13.20;;;;;;;20.94;63.96;100083.53;5066911;28;20076;-72
2022/08/29 07:46:10;;;;;;;17.67;15.48;;;;;;;21.10;63.53;100102.63;5067205;28;20044;-67
2022/08/29 07:48:38;;;;;;;17.50;13.65;;;;;;;20.94;63.50;100060.00;5065352;28;21203;-69
2022/08/29 07:51:11;;;;;;;18.95;13.18;;;;;;;21.22;63.15;100097.69;5068381;28;20049;-68
2022/08/29 07:53:39;;;;;;;17.05;12.15;;;;;;;21.34;63.51;100107.34;5061689;28;20098;-68
2022/08/29 07:56:10;;;;;;;15.73;12.80;;;;;;;21.43;63.16;100110.88;5069591;28;20080;-66
2022/08/29 07:58:37;;;;;;;19.75;13.20;;;;;;;21.65;62.78;100100.91;5063508;28;20045;-66
2022/08/29 08:01:05;;;;;;;12.65;11.25;;;;;;;21.98;62.72;100087.13;5063125;28;20138;-68
2022/08/29 08:03:33;;;;;;;14.00;12.85;;;;;;;22.23;61.91;100081.25;5069103;28;20049;-68
2022/08/29 08:06:01;;;;;;;14.32;12.18;;;;;;;22.08;61.81;100042.25;5064881;28;20431;-69
2022/08/29 08:08:32;;;;;;;15.77;13.02;;;;;;;22.30;61.17;100058.63;5065446;28;20416;-69
2022/08/29 08:11:01;;;;;;;14.45;11.70;;;;;;;22.70;60.62;100103.00;5060499;28;20048;-70
2022/08/29 08:13:28;;;;;;;14.60;10.73;;;;;;;22.91;60.44;100099.81;5066305;28;20461;-69
2022/08/29 08:15:55;;;;;;;13.95;11.65;;;;;;;23.11;60.01;100097.75;5064348;28;20059;-68
2022/08/29 08:18:24;;;;;;;12.52;11.48;;;;;;;23.36;60.04;100064.91;5063888;28;20070;-70
2022/08/29 08:20:51;;;;;;;13.73;12.15;;;;;;;23.90;58.81;100105.78;5067094;28;20080;-70
2022/08/29 08:23:18;;;;;;;14.25;12.80;;;;;;;24.32;58.49;100111.31;5063565;28;20055;-70
2022/08/29 08:25:45;;;;;;;15.98;13.23;;;;;;;24.10;58.24;100104.47;5065610;28;20088;-69
2022/08/29 08:28:13;;;;;;;15.63;10.90;;;;;;;23.89;57.94;100113.47;5064623;28;20805;-71
2022/08/29 08:30:40;;;;;;;11.75;10.63;;;;;;;23.75;57.90;100123.81;5065919;28;20171;-67
2022/08/29 08:33:08;;;;;;;13.70;12.60;;;;;;;23.77;58.23;100130.81;5069426;28;20086;-71
2022/08/29 08:35:37;;;;;;;12.45;11.20;;;;;;;23.91;57.62;100118.81;5063069;28;20425;-69
2022/08/29 08:38:08;;;;;;;13.95;12.60;;;;;;;24.15;57.29;100131.03;5061805;28;20052;-68
2022/08/29 08:40:44;;;;;;;11.35;9.65;;;;;;;24.11;56.73;100133.81;5060668;28;20821;-69
2022/08/29 08:43:15;;;;;;;15.13;12.05;;;;;;;24.07;56.91;100124.41;5063913;28;20056;-69
2022/08/29 08:45:54;;;;;;;13.32;12.02;;;;;;;24.02;56.68;100130.41;5067697;28;20063;-68
2022/08/29 08:48:29;;;;;;;11.67;10.47;;;;;;;24.04;56.85;100128.00;5065686;28;20053;-69
2022/08/29 08:51:06;;;;;;;11.80;10.63;;;;;;;24.11;56.51;100128.94;5070663;28;20135;-68
2022/08/29 08:53:33;;;;;;;10.25;9.30;;;;;;;24.09;56.42;100153.34;5063864;28;20479;-68
2022/08/29 08:56:06;;;;;;;11.00;10.00;;;;;;;24.01;56.38;100152.41;5059099;28;20139;-68
2022/08/29 08:58:54;;;;;;;10.93;9.82;;;;;;;24.02;56.21;100158.94;5064352;28;20097;-68
2022/08/29 09:01:26;;;;;;;13.65;9.32;;;;;;;24.09;55.55;100161.91;5063840;28;20553;-66
2022/08/29 09:04:07;;;;;;;9.63;8.32;;;;;;;24.34;55.46;100154.59;5065930;28;20836;-68
2022/08/29 09:06:43;;;;;;;12.40;9.50;;;;;;;24.32;55.39;100162.69;5059325;28;20079;-68
2022/08/29 09:09:29;;;;;;;10.07;9.18;;;;;;;24.13;55.33;100163.59;5061136;28;20083;-68
2022/08/29 09:12:35;;;;;;;8.43;7.57;;;;;;;24.04;55.39;100147.97;5065533;28;20056;-68
2022/08/29 09:15:07;;;;;;;11.90;10.73;;;;;;;24.30;54.60;100173.66;5062935;28;20048;-68
2022/08/29 09:17:56;;;;;;;9.38;8.10;;;;;;;24.18;54.57;100159.63;5063516;28;20098;-71
2022/08/29 09:20:30;;;;;;;8.50;7.80;;;;;;;24.12;54.96;100172.53;5065888;28;20584;-70
2022/08/29 09:23:09;;;;;;;11.65;10.65;;;;;;;24.09;54.77;100176.97;5066262;28;20151;-70
2022/08/29 09:25:36;;;;;;;10.70;7.97;;;;;;;24.28;54.40;100195.25;5063771;28;20613;-69
2022/08/29 09:28:06;;;;;;;10.48;7.93;;;;;;;24.54;54.44;100197.31;5061500;28;20497;-68
2022/08/29 09:30:35;;;;;;;9.23;8.43;;;;;;;24.96;53.80;100184.88;5073546;28;20048;-68
2022/08/29 09:33:04;;;;;;;9.32;8.43;;;;;;;25.49;52.80;100201.88;5068749;28;20083;-67
2022/08/29 09:36:03;;;;;;;12.48;11.27;;;;;;;25.46;52.99;100200.63;5064026;28;20260;-68
2022/08/29 09:38:30;;;;;;;10.97;10.03;;;;;;;25.36;53.04;100217.66;5060135;28;20140;-68
2022/08/29 09:41:00;;;;;;;8.93;8.13;;;;;;;25.43;52.69;100201.41;5069809;28;20072;-69
2022/08/29 09:43:39;;;;;;;9.40;8.45;;;;;;;25.59;52.80;100218.34;5069206;28;20062;-67
2022/08/29 09:46:09;;;;;;;10.00;9.20;;;;;;;25.37;52.69;100216.44;5068043;28;20531;-68
2022/08/29 09:48:39;;;;;;;9.80;7.55;;;;;;;25.43;52.78;100215.69;5068225;28;20579;-68
2022/08/29 09:51:29;;;;;;;9.07;8.43;;;;;;;25.64;52.26;100217.16;5066228;28;20648;-69
2022/08/29 09:54:17;;;;;;;12.32;11.35;;;;;;;26.09;51.67;100218.91;5063087;28;20139;-69
2022/08/29 09:57:01;;;;;;;8.80;8.02;;;;;;;26.76;50.97;100212.09;5066263;28;20052;-67
2022/08/29 09:59:36;;;;;;;9.48;8.52;;;;;;;27.69;49.82;100220.34;5063383;28;20417;-67
2022/08/29 10:02:14;;;;;;;10.57;8.93;;;;;;;27.62;48.88;100230.59;5068069;28;20088;-68
2022/08/29 10:04:44;;;;;;;11.20;10.18;;;;;;;27.08;48.81;100218.03;5063226;28;20048;-68
2022/08/29 10:07:54;;;;;;;9.00;8.10;;;;;;;26.84;49.52;100224.44;5067228;28;20230;-68
2022/08/29 10:10:28;;;;;;;11.98;9.27;;;;;;;26.97;49.31;100227.78;5067574;28;20132;-69
2022/08/29 10:13:22;;;;;;;10.07;7.82;;;;;;;27.46;48.61;100227.25;5060731;28;20072;-68
2022/08/29 10:16:08;;;;;;;9.75;8.88;;;;;;;27.49;47.66;100186.28;5071340;28;20143;-67
2022/08/29 10:18:50;;;;;;;9.35;8.40;;;;;;;28.00;47.00;100236.88;5072355;28;20731;-69
2022/08/29 10:21:23;;;;;;;9.23;8.27;;;;;;;28.05;47.03;100239.31;5062747;28;20072;-70
2022/08/29 10:24:08;;;;;;;11.27;9.00;;;;;;;28.66;46.40;100241.44;5063648;28;20143;-69
2022/08/29 10:26:55;;;;;;;10.25;9.13;;;;;;;29.32;45.11;100233.09;5058872;28;20127;-69
2022/08/29 10:29:21;;;;;;;9.70;9.05;;;;;;;29.38;44.40;100245.81;5070217;28;20087;-69
2022/08/29 10:31:51;;;;;;;8.40;7.63;;;;;;;29.40;44.76;100251.13;5064220;28;20084;-71
2022/08/29 10:34:26;;;;;;;8.45;7.65;;;;;;;29.40;44.19;100246.22;5070668;28;20516;-70
2022/08/29 10:37:06;;;;;;;9.77;7.85;;;;;;;29.29;44.71;100228.16;5071690;28;20083;-69
2022/08/29 10:39:32;;;;;;;11.45;9.63;;;;;;;29.42;44.38;100242.91;5072037;28;20441;-70
2022/08/29 10:42:08;;;;;;;13.23;8.57;;;;;;;29.46;43.51;100215.75;5062531;28;20067;-71
2022/08/29 10:45:12;;;;;;;8.95;8.10;;;;;;;29.44;43.69;100231.81;5062301;28;20095;-69
2022/08/29 10:48:20;;;;;;;8.02;7.53;;;;;;;29.32;44.16;100221.59;5064877;28;20090;-71
2022/08/29 10:51:02;;;;;;;10.13;9.23;;;;;;;29.27;44.10;100227.78;5061734;28;20588;-72
2022/08/29 10:53:37;;;;;;;8.18;7.47;;;;;;;28.95;43.92;100214.28;5058318;28;20128;-72
2022/08/29 10:56:38;;;;;;;12.38;8.50;;;;;;;28.61;43.81;100230.34;5065866;28;20110;-71
2022/08/29 10:59:17;;;;;;;14.05;10.88;;;;;;;28.43;44.05;100227.47;5063480;28;20097;-71
2022/08/29 11:01:52;;;;;;;13.32;9.45;;;;;;;28.51;44.40;100231.97;5063227;28;20174;-72
2022/08/29 11:04:25;;;;;;;8.60;7.85;;;;;;;29.60;42.72;100231.34;5054462;28;20704;-70
2022/08/29 11:07:04;;;;;;;12.07;10.98;;;;;;;30.25;41.44;100238.38;5063697;28;20156;-69
2022/08/29 11:09:41;;;;;;;9.43;8.63;;;;;;;30.37;41.27;100226.34;5061973;28;20151;-69
2022/08/29 11:12:29;;;;;;;10.30;9.20;;;;;;;30.12;41.66;100234.31;5061673;28;20143;-70
2022/08/29 11:15:02;;;;;;;9.18;8.32;;;;;;;29.60;42.12;100191.06;5063156;28;20071;-69
2022/08/29 11:17:36;;;;;;;8.80;7.90;;;;;;;30.09;41.35;100235.19;5064378;28;20471;-69
2022/08/29 11:20:08;;;;;;;9.98;9.02;;;;;;;30.07;41.12;100241.34;5062386;28;20131;-70
2022/08/29 11:22:42;;;;;;;12.57;11.35;;;;;;;30.03;41.17;100231.13;5064409;28;20178;-68
2022/08/29 11:25:20;;;;;;;8.65;7.95;;;;;;;29.80;41.11;100234.53;5060359;28;20139;-69
2022/08/29 11:27:47;;;;;;;9.32;8.38;;;;;;;30.16;41.25;100249.53;5077079;28;20048;-68
2022/08/29 11:30:22;;;;;;;11.93;9.55;;;;;;;29.90;41.31;100233.66;5062274;28;20045;-69
2022/08/29 11:33:28;;;;;;;10.00;9.10;;;;;;;29.55;42.07;100235.47;5063673;28;20136;-68
2022/08/29 11:36:32;;;;;;;11.98;11.05;;;;;;;29.48;42.24;100233.44;5063033;28;20092;-68
2022/08/29 11:39:23;;;;;;;11.02;9.95;;;;;;;29.92;41.63;100237.75;5058440;28;20077;-69